createdAt,value
2023-12-16T00:02:54.839Z,32.70
2023-12-16T00:07:51.171Z,23.88
2023-12-16T00:12:47.498Z,30.33
2023-12-16T00:17:44.451Z,23.02
2023-12-16T00:22:41.332Z,31.08
2023-12-16T00:27:38.040Z,22.27
2023-12-16T00:32:34.552Z,34.10
2023-12-16T00:37:30.920Z,26.88
2023-12-16T00:42:27.281Z,18.15
2023-12-16T00:47:24.086Z,21.95
2023-12-16T00:52:20.353Z,27.95
2023-12-16T00:57:17.191Z,27.65
2023-12-16T01:02:13.458Z,28.67
2023-12-16T01:07:10.416Z,25.77
2023-12-16T01:12:06.843Z,20.02
2023-12-16T01:17:03.746Z,34.60
2023-12-16T01:22:00.277Z,17.92
2023-12-16T01:26:56.625Z,20.27
2023-12-16T01:31:52.875Z,18.40
2023-12-16T01:36:49.193Z,27.23
2023-12-16T01:41:45.473Z,19.38
2023-12-16T01:46:42.057Z,32.75
2023-12-16T01:51:38.462Z,28.25
2023-12-16T01:56:36.004Z,27.08
2023-12-16T02:01:33.026Z,24.30
2023-12-16T02:06:29.437Z,25.33
2023-12-16T02:11:25.774Z,20.63
2023-12-16T02:16:22.098Z,25.55
2023-12-16T02:21:18.353Z,21.67
2023-12-16T02:26:14.621Z,21.90
2023-12-16T02:31:11.071Z,22.65
2023-12-16T02:36:07.839Z,14.40
2023-12-16T02:41:04.334Z,18.15
2023-12-16T02:46:00.628Z,16.58
2023-12-16T02:50:56.947Z,19.45
2023-12-16T02:55:53.210Z,20.80
2023-12-16T03:00:49.567Z,14.68
2023-12-16T03:05:45.896Z,12.25
2023-12-16T03:10:42.178Z,14.65
2023-12-16T03:15:38.493Z,22.58
2023-12-16T03:20:34.731Z,16.38
2023-12-16T03:25:31.016Z,10.00
2023-12-16T03:30:27.264Z,19.25
2023-12-16T03:35:23.599Z,11.68
2023-12-16T03:40:20.030Z,16.20
2023-12-16T03:45:16.341Z,14.82
2023-12-16T03:50:12.661Z,7.45
2023-12-16T03:55:09.005Z,17.75
2023-12-16T04:00:06.231Z,11.85
2023-12-16T04:05:02.603Z,17.33
2023-12-16T04:09:59.774Z,12.02
2023-12-16T04:14:56.016Z,13.70
2023-12-16T04:19:52.942Z,10.13
2023-12-16T04:24:51.375Z,12.82
2023-12-16T04:29:47.858Z,12.68
2023-12-16T04:34:44.197Z,18.17
2023-12-16T04:39:40.526Z,14.10
2023-12-16T04:44:37.685Z,10.32
2023-12-16T04:49:34.144Z,14.73
2023-12-16T04:54:30.663Z,12.98
2023-12-16T04:59:26.934Z,10.82
2023-12-16T05:04:23.897Z,12.07
2023-12-16T05:09:20.201Z,9.88
2023-12-16T05:14:16.560Z,15.93
2023-12-16T05:19:12.923Z,14.85
2023-12-16T05:24:09.245Z,20.73
2023-12-16T05:29:05.521Z,10.50
2023-12-16T05:34:01.963Z,11.30
2023-12-16T05:38:58.302Z,18.75
2023-12-16T05:43:54.577Z,8.95
2023-12-16T05:48:50.929Z,14.43
2023-12-16T05:53:47.209Z,12.70
2023-12-16T05:58:43.475Z,10.63
2023-12-16T06:03:39.747Z,13.02
2023-12-16T06:08:36.051Z,10.98
2023-12-16T06:13:32.426Z,15.60
2023-12-16T06:18:28.887Z,8.85
2023-12-16T06:23:25.156Z,15.00
2023-12-16T06:28:21.510Z,10.45
2023-12-16T06:33:17.855Z,10.65
2023-12-16T06:38:14.115Z,11.48
2023-12-16T06:43:10.443Z,8.15
2023-12-16T06:48:06.903Z,11.25
2023-12-16T06:53:03.332Z,16.17
2023-12-16T06:57:59.697Z,13.02
2023-12-16T07:02:55.992Z,14.15
2023-12-16T07:07:52.300Z,17.65
2023-12-16T07:12:48.616Z,12.10
2023-12-16T07:17:45.246Z,11.50
2023-12-16T07:22:41.623Z,13.80
2023-12-16T07:27:38.206Z,13.45
2023-12-16T07:32:34.943Z,11.93
2023-12-16T07:37:31.292Z,13.27
2023-12-16T07:42:27.735Z,9.05
2023-12-16T07:47:24.045Z,13.77
2023-12-16T07:52:20.495Z,21.80
2023-12-16T07:57:16.860Z,15.68
2023-12-16T08:02:13.141Z,14.27
2023-12-16T08:07:09.440Z,25.58
2023-12-16T08:12:06.478Z,21.02
2023-12-16T08:17:02.766Z,15.10
2023-12-16T08:22:01.165Z,21.50
2023-12-16T08:26:57.726Z,17.88
2023-12-16T08:31:54.043Z,9.35
2023-12-16T08:36:50.473Z,22.67
2023-12-16T08:41:46.824Z,16.85
2023-12-16T08:46:43.138Z,17.00
2023-12-16T08:51:39.409Z,23.48
2023-12-16T08:56:36.003Z,15.20
2023-12-16T09:01:33.651Z,15.02
2023-12-16T09:06:30.042Z,15.95
2023-12-16T09:11:26.370Z,18.50
2023-12-16T09:16:22.681Z,23.20
2023-12-16T09:21:19.386Z,16.83
2023-12-16T09:26:15.672Z,18.75
2023-12-16T09:31:12.067Z,23.45
2023-12-16T09:36:14.982Z,17.05
2023-12-16T09:41:20.613Z,24.30
2023-12-16T09:46:18.116Z,19.67
2023-12-16T09:51:14.884Z,14.10
2023-12-16T09:56:12.155Z,18.52
2023-12-16T10:01:08.832Z,17.15
2023-12-16T10:06:06.798Z,18.45
2023-12-16T10:11:12.192Z,16.98
2023-12-16T10:16:17.377Z,18.95
2023-12-16T10:21:25.102Z,21.33
2023-12-16T10:26:22.229Z,26.38
2023-12-16T10:31:20.122Z,25.05
2023-12-16T10:36:16.757Z,28.13
2023-12-16T10:41:13.230Z,24.33
2023-12-16T10:46:10.625Z,23.98
2023-12-16T10:51:08.441Z,25.17
2023-12-16T10:56:07.885Z,27.40
2023-12-16T11:01:11.135Z,19.08
2023-12-16T11:06:24.198Z,28.88
2023-12-16T11:28:37.908Z,30.45
2023-12-16T12:51:53.498Z,37.90
2023-12-16T15:53:47.061Z,22.65
2023-12-16T15:58:17.422Z,20.00
2023-12-16T19:03:25.588Z,36.60
2023-12-16T19:08:23.424Z,32.08
2023-12-16T19:13:23.301Z,38.80
2023-12-16T19:18:19.898Z,34.20
2023-12-16T21:47:46.327Z,30.80
2023-12-16T21:52:42.740Z,27.10
2023-12-16T21:57:39.285Z,30.83
2023-12-16T22:02:36.017Z,29.73
2023-12-16T22:07:32.330Z,31.55
2023-12-16T22:12:28.746Z,43.83
2023-12-16T22:17:25.086Z,37.63
2023-12-16T22:22:21.353Z,35.42
2023-12-16T22:27:17.758Z,32.80
2023-12-16T22:32:13.998Z,37.33
2023-12-16T22:37:10.304Z,39.72
2023-12-16T22:42:06.753Z,33.55
2023-12-16T22:47:03.165Z,38.85
2023-12-16T22:51:59.534Z,30.23
2023-12-16T22:56:56.353Z,36.25
2023-12-16T23:01:52.703Z,36.63
2023-12-16T23:06:49.079Z,41.58
2023-12-16T23:11:45.400Z,38.25
2023-12-16T23:16:41.669Z,39.00
2023-12-16T23:21:45.145Z,41.80
2023-12-16T23:26:41.655Z,37.10
2023-12-16T23:31:38.265Z,40.75
2023-12-16T23:36:35.792Z,34.47
2023-12-16T23:41:32.058Z,34.17
2023-12-16T23:46:28.725Z,32.33
2023-12-16T23:51:25.089Z,34.90
2023-12-16T23:56:23.010Z,29.38
